Diamond Center, Iowa
Current Conditions -  °F | °C
As of 11:35 PM on Wednesday 26 Nov 2014 (Local Time) from KCKP Reporting Station
Broken Clouds Broken Clouds  
Wind Chill: -18°   Ceiling: 7000
Heat Index: -12°   Visibility: 10mi
Dew Point: -15°   Wind: 8mph
Humidity: 73%   Direction: 350°N
Pressure: 30.45"   Gusts: NA
Location:  42.6502°N, 95.4454°W
Report Text: KCKP 270535Z AUTO 35007KT 10SM BKN070 M11/M15 A3045 RMK AO2 T11151154
Loading
Personal Weather Stations






























Interactive Weather Map New forecast layout! Learn more

10-Day Weather Forecast

Advertisements
Track Severe Weather on mobile